This is the latest recevied weather packets stored in our database for station/object OE-11099. If no packets are shown the sender has not sent any weather packets the latest 10 day(s).
| Time | Temp. | Humidity | Pressure | Rain* | Wind** | Luminosity | Snow |
|---|---|---|---|---|---|---|---|
| 1787786106 | 20.56° C | 64% | 1014.2 hPa | 0 mm | - | 0 W/m² | - |
| 1787785506 | 20° C | 67% | 1014.2 hPa | 0 mm | - | 0 W/m² | - |
| 1787784906 | 20.56° C | 65% | 1013.9 hPa | 0 mm | - | 0 W/m² | - |
| 1787784079 | 21.11° C | 63% | 1013.8 hPa | 0 mm | - | 0 W/m² | - |
| 1787783706 | 20.56° C | 65% | 1013.7 hPa | 0 mm | - | 0 W/m² | - |
| 1787783105 | 20.56° C | 69% | 1013.7 hPa | 0 mm | - | 0 W/m² | - |
| 1787782280 | 20° C | 71% | 1013.9 hPa | 0 mm | - | 0 W/m² | - |
| 1787781906 | 20.56° C | 67% | 1013.7 hPa | 0 mm | - | 0 W/m² | - |
| 1787781305 | 20.56° C | 69% | 1013.8 hPa | 0 mm | - | 0 W/m² | - |
| 1787780480 | 21.11° C | 69% | 1013.7 hPa | 0 mm | - | 0 W/m² | - |
| 1787780106 | 21.67° C | 66% | 1013.5 hPa | 0 mm | - | 0 W/m² | - |
| 1787779505 | 21.11° C | 68% | 1013.7 hPa | 0 mm | - | 0 W/m² | - |
| 1787778679 | 21.67° C | 67% | 1013.9 hPa | 0 mm | - | 0 W/m² | - |
| 1787778313 | 21.11° C | 68% | 1013.9 hPa | 0 mm | - | 0 W/m² | - |
| 1787777706 | 21.67° C | 66% | 1013.8 hPa | 0 mm | - | 0 W/m² | - |
| 1787776879 | 21.67° C | 67% | 1013.9 hPa | 0 mm | - | 0 W/m² | - |
| 1787776506 | 21.11° C | 70% | 1014.2 hPa | 0 mm | - | 0 W/m² | - |
| 1787775906 | 21.67° C | 70% | 1014.3 hPa | 0 mm | - | 0 W/m² | - |
| 1787775080 | 21.67° C | 67% | 1014.3 hPa | 0 mm | - | 0 W/m² | - |
| 1787774706 | 21.11° C | 72% | 1014.5 hPa | 0 mm | - | 0 W/m² | - |
| 1787774106 | 20.56° C | 75% | 1014.7 hPa | 0 mm | - | 0 W/m² | - |
| 1787773279 | 21.11° C | 73% | 1014.6 hPa | 0 mm | - | 0 W/m² | - |
| 1787772906 | 21.11° C | 75% | 1014.6 hPa | 0 mm | - | 0 W/m² | - |
| 1787772306 | 21.11° C | 72% | 1014.5 hPa | 0 mm | - | 0 W/m² | - |
| 1787771479 | 21.67° C | 72% | 1014.3 hPa | 0 mm | - | 0 W/m² | - |
* Rain latest hour (hover to see other rain measurements)
** Current wind speed in m/s (hover to see current wind gust speed)